Froid extrême Valable du: 24-02-2018 12:59 Au: 25-02-2018 23:59 Avertissement pour: Froid extrême Niveau: Jaune info button
nederlands:


français:
 



Thunder radar more information blitzortung!


Rain radar more information rain snow radar


Visitez nos sites météorologiques autres:

Template documentation
and downloads

And another site



Rapports METAR proximité

   
EBAW - Antwerp
Mise à jour: 24-02-2018 12:50
Claires  
Claires  
   Vent: Est 31.5 km/h
Vent: Est 31.5 km/h
Température: 4°C
éolien: -1°C
Point de rosée: -11°C
Humidité: 33%
Baromètre: 1023 hPa
visibilité: More than 10 km
Détails des nuages: Claires
EBAW 241150Z 08017KT CAVOK 04/M11 Q1023 TEMPO 08016G26KT
EBLG - Liège
Mise à jour: 24-02-2018 12:50
Claires  
Claires  
   Vent: ENE 29.6 km/h<br />Gust to 29.6 km/h
Vent: ENE 29.6 km/h
Gust to 29.6 km/h
Température: 2°C
éolien: -4°C
Point de rosée: -14°C
Humidité: 30%
Baromètre: 1021 hPa
visibilité: More than 10 km
Détails des nuages: Claires
EBLG 241150Z 07016G28KT CAVOK 02/M14 Q1021 NOSIG
EBCV - Mons/Bergen
Mise à jour: 24-02-2018 12:55
Claires  
Claires  
   Vent: ENE 31.5 km/h
Vent: ENE 31.5 km/h
Température: 2°C
éolien: -4°C
Point de rosée: -11°C
Humidité: 38%
Baromètre: 1020 hPa
Nuageux: Claires
visibilité: More than 10 km
Détails des nuages: Claires
EBCV 241155Z AUTO 06017KT 9999 NCD 02/M11 Q1020 BLU
EHBK - Maastricht
Mise à jour: 24-02-2018 12:55
Partiellement nuageux  
Partiellement nuageux  
   Vent: Est 33.3 km/h
Vent: Est 33.3 km/h
Température: 4°C
éolien: -2°C
Point de rosée: -9°C
Humidité: 39%
Baromètre: 1022 hPa
Nuageux: Partiellement nuageux
visibilité: More than 10 km
Détails des nuages: Partiellement nuageux
EHBK 241155Z AUTO 08018KT 040V110 9999 NSC 04/M09 Q1022 NOSIG
ELLX - Luxemburg
Mise à jour: 24-02-2018 12:50
Claires  
Claires  
   Vent: ENE 27.8 km/h<br />Gust to 27.8 km/h
Vent: ENE 27.8 km/h
Gust to 27.8 km/h
Température: 3°C
éolien: -2°C
Point de rosée: -14°C
Humidité: 28%
Baromètre: 1017 hPa
visibilité: More than 10 km
Détails des nuages: Claires
ELLX 241150Z 07015G26KT 040V110 CAVOK 03/M14 Q1017 WS IN APCH NOSIG
EBOS - Oostende
Mise à jour: 24-02-2018 12:50
Claires  
Claires  
   Vent: Est 27.8 km/h
Vent: Est 27.8 km/h
Température: 3°C
éolien: -2°C
Point de rosée: -9°C
Humidité: 41%
Baromètre: 1022 hPa
visibilité: More than 10 km
Détails des nuages: Claires
EBOS 241150Z 08015KT CAVOK 03/M09 Q1022 NOSIG

Script développé par  Saratoga-weather.org Adapté pour le modèle par  Weerstation Leuven

Vous trouverez notre info météo Également à:

Weather Underground

Équipement que nous utilisons:

Station de Météo
Davis VP2

Programme Météo
Meteohub

Ordinateur Météo
RaspberryPI 2

Provider
OVH

Davis VP2

Meteohub

RaspberryPI 2

OVH